Time;durP1;ratioP1;P1;durP2;ratioP2;P2;SDS_P1;SDS_P2;PMS_P1;PMS_P2;Temp;Humidity;BMP_temperature;BMP_pressure;BME280_temperature;BME280_humidity;BME280_pressure;Samples;Min_cycle;Max_cycle;Signal;HPM_P1;HPM_P2
2022/10/08 00:00:11;;;;;;;12.52;2.88;;;12.00;99.90;;;;;;5021218;28;20303;-75
2022/10/08 00:02:37;;;;;;;3.90;1.75;;;11.90;99.90;;;;;;5020382;28;20631;-76
2022/10/08 00:05:03;;;;;;;11.80;3.47;;;11.90;99.90;;;;;;5012279;28;20025;-75
2022/10/08 00:07:28;;;;;;;11.77;2.08;;;11.90;99.90;;;;;;5005310;28;20037;-76
2022/10/08 00:09:54;;;;;;;11.13;2.40;;;11.90;99.90;;;;;;5025697;28;20428;-75
2022/10/08 00:12:19;;;;;;;6.60;2.25;;;11.80;99.90;;;;;;5011562;28;20025;-75
2022/10/08 00:14:45;;;;;;;6.28;2.00;;;11.80;99.90;;;;;;5027672;28;20064;-75
2022/10/08 00:17:10;;;;;;;5.70;1.92;;;11.90;99.90;;;;;;5011052;28;20129;-75
2022/10/08 00:19:36;;;;;;;8.43;1.75;;;11.80;99.90;;;;;;5027136;28;20048;-74
2022/10/08 00:22:01;;;;;;;6.13;1.90;;;11.80;99.90;;;;;;5010764;28;20137;-75
2022/10/08 00:24:27;;;;;;;3.50;1.15;;;11.80;99.90;;;;;;5026121;28;20054;-76
2022/10/08 00:26:52;;;;;;;8.07;2.42;;;11.80;99.90;;;;;;5010975;28;20033;-76
2022/10/08 00:29:19;;;;;;;11.18;2.10;;;11.90;99.90;;;;;;5010781;28;20056;-76
2022/10/08 00:31:46;;;;;;;11.98;2.47;;;11.80;99.90;;;;;;5026435;28;20025;-75
2022/10/08 00:34:16;;;;;;;8.95;3.25;;;11.80;99.90;;;;;;5010454;28;20076;-76
2022/10/08 00:36:42;;;;;;;2.67;1.02;;;11.70;99.90;;;;;;5010601;28;20096;-75
2022/10/08 00:39:10;;;;;;;11.07;2.10;;;11.80;99.90;;;;;;5010086;28;20493;-76
2022/10/08 00:41:37;;;;;;;10.10;2.03;;;11.80;99.90;;;;;;5007062;28;20520;-76
2022/10/08 00:44:23;;;;;;;11.77;2.70;;;11.70;99.90;;;;;;5010546;28;20344;-75
2022/10/08 00:46:48;;;;;;;12.70;1.80;;;11.70;99.90;;;;;;5026019;28;20029;-77
2022/10/08 00:49:15;;;;;;;8.60;2.05;;;11.80;99.90;;;;;;4987768;28;20869;-76
2022/10/08 00:51:43;;;;;;;9.77;2.33;;;11.70;99.90;;;;;;5009540;28;20033;-76
2022/10/08 00:54:08;;;;;;;8.68;2.03;;;11.70;99.90;;;;;;5010299;28;20495;-75
2022/10/08 00:56:35;;;;;;;3.80;1.95;;;11.70;99.90;;;;;;5009191;28;20045;-74
2022/10/08 00:59:01;;;;;;;4.20;1.77;;;11.70;99.90;;;;;;5008203;28;20515;-76
2022/10/08 01:01:28;;;;;;;5.95;2.00;;;11.60;99.90;;;;;;5026637;28;20046;-76
2022/10/08 01:03:54;;;;;;;7.00;1.98;;;11.60;99.90;;;;;;5026246;28;20047;-76
2022/10/08 01:06:26;;;;;;;8.63;2.30;;;11.60;99.90;;;;;;4993342;28;20041;-76
2022/10/08 01:09:21;;;;;;;8.18;1.70;;;11.70;99.90;;;;;;5007740;28;20030;-76
2022/10/08 01:12:18;;;;;;;9.35;1.83;;;11.50;99.90;;;;;;4973166;28;20039;-76
2022/10/08 01:14:46;;;;;;;6.22;1.92;;;11.50;99.90;;;;;;5027016;28;20107;-76
2022/10/08 01:17:15;;;;;;;9.25;2.25;;;11.60;99.90;;;;;;5026706;28;20029;-76
2022/10/08 01:19:47;;;;;;;10.55;2.55;;;11.50;99.90;;;;;;5028046;28;20148;-75
2022/10/08 01:22:29;;;;;;;6.43;2.20;;;11.60;99.90;;;;;;5024658;28;20030;-76
2022/10/08 01:27:48;;;;;;;8.45;1.67;;;11.60;99.90;;;;;;5012058;28;20369;-76
2022/10/08 01:30:15;;;;;;;3.45;1.80;;;11.60;99.90;;;;;;5010335;28;20061;-76
2022/10/08 01:32:47;;;;;;;6.10;1.80;;;11.50;99.90;;;;;;5010182;28;20064;-76
2022/10/08 01:35:18;;;;;;;8.07;1.70;;;11.60;99.90;;;;;;5009253;28;20120;-76
2022/10/08 01:37:43;;;;;;;7.82;1.88;;;11.60;99.90;;;;;;4985593;28;20052;-76
2022/10/08 01:40:15;;;;;;;6.45;2.13;;;11.60;99.90;;;;;;5026037;28;20045;-75
2022/10/08 01:42:41;;;;;;;10.68;2.00;;;11.60;99.90;;;;;;5008028;28;20196;-75
2022/10/08 01:45:15;;;;;;;6.40;2.33;;;11.60;99.90;;;;;;5008966;28;20066;-75
2022/10/08 01:47:42;;;;;;;6.45;1.90;;;11.70;99.90;;;;;;4985364;28;20057;-75
2022/10/08 01:50:17;;;;;;;6.85;1.65;;;11.70;99.90;;;;;;5008819;28;20037;-77
2022/10/08 01:52:48;;;;;;;8.77;1.85;;;11.70;99.90;;;;;;4992742;28;20609;-76
2022/10/08 01:55:19;;;;;;;8.38;2.30;;;11.80;99.90;;;;;;5025549;28;20518;-76
2022/10/08 01:57:44;;;;;;;6.07;1.58;;;11.70;99.90;;;;;;5009241;28;20041;-76
2022/10/08 02:00:12;;;;;;;9.60;1.80;;;11.70;99.90;;;;;;5005827;28;20040;-75
2022/10/08 02:02:37;;;;;;;5.03;1.25;;;11.80;99.90;;;;;;5007797;28;20030;-75
2022/10/08 02:05:03;;;;;;;7.07;1.10;;;11.80;99.90;;;;;;4992417;28;20029;-75
2022/10/08 02:07:30;;;;;;;7.63;2.13;;;11.80;99.90;;;;;;5006443;28;20637;-75
2022/10/08 02:10:16;;;;;;;15.05;2.20;;;11.80;99.90;;;;;;4991829;28;20033;-77
2022/10/08 02:12:41;;;;;;;4.85;1.48;;;11.80;99.90;;;;;;5007134;28;20433;-75
2022/10/08 02:15:13;;;;;;;7.85;1.48;;;11.90;99.90;;;;;;5024533;28;20040;-76
2022/10/08 02:18:05;;;;;;;12.85;2.17;;;11.80;99.90;;;;;;4988830;28;20044;-75
2022/10/08 02:20:40;;;;;;;11.07;1.67;;;11.90;99.90;;;;;;5024670;28;20029;-76
2022/10/08 02:23:18;;;;;;;4.72;1.92;;;11.80;99.90;;;;;;4992829;28;20064;-77
2022/10/08 02:26:06;;;;;;;4.93;1.38;;;11.90;99.90;;;;;;5008196;28;20087;-78
2022/10/08 02:28:44;;;;;;;6.50;2.17;;;11.90;99.90;;;;;;5023492;28;20041;-78
2022/10/08 02:31:13;;;;;;;3.28;0.90;;;11.90;99.90;;;;;;5006328;28;20492;-78
2022/10/08 02:33:58;;;;;;;4.45;1.40;;;11.90;99.90;;;;;;5008125;28;20400;-78
2022/10/08 02:36:33;;;;;;;2.95;1.20;;;11.90;99.90;;;;;;5009471;28;20065;-77
2022/10/08 02:39:02;;;;;;;5.40;1.53;;;12.00;99.90;;;;;;4991723;28;20034;-78
2022/10/08 02:41:30;;;;;;;10.43;1.90;;;11.90;99.90;;;;;;5024077;28;20102;-78
2022/10/08 02:43:57;;;;;;;8.30;1.52;;;12.00;99.90;;;;;;4991495;28;20038;-78
2022/10/08 02:46:24;;;;;;;5.07;1.50;;;12.00;99.90;;;;;;5005548;28;20087;-78
2022/10/08 02:49:00;;;;;;;5.05;0.75;;;12.00;99.90;;;;;;5023601;28;20033;-78
2022/10/08 02:51:26;;;;;;;7.25;1.80;;;12.10;99.90;;;;;;5024565;28;20068;-75
2022/10/08 02:53:52;;;;;;;7.55;1.48;;;12.10;99.90;;;;;;5008092;28;20500;-75
2022/10/08 02:56:23;;;;;;;7.20;1.67;;;12.10;99.90;;;;;;5008161;28;20265;-76
2022/10/08 02:58:48;;;;;;;5.53;1.50;;;12.10;99.90;;;;;;5024013;28;20524;-76
2022/10/08 03:01:34;;;;;;;9.23;1.20;;;12.10;99.90;;;;;;5024183;28;20040;-76
2022/10/08 03:04:06;;;;;;;10.65;1.95;;;12.10;99.90;;;;;;5021616;28;20124;-75
2022/10/08 03:06:31;;;;;;;11.38;2.42;;;12.10;99.90;;;;;;5023875;28;20030;-76
2022/10/08 03:08:58;;;;;;;8.43;1.60;;;12.10;99.90;;;;;;5024585;28;20044;-76
2022/10/08 03:11:24;;;;;;;12.45;2.13;;;12.10;99.90;;;;;;5008016;28;20037;-76
2022/10/08 03:13:49;;;;;;;2.97;0.82;;;12.10;99.90;;;;;;5006171;28;20037;-77
2022/10/08 03:16:19;;;;;;;9.00;2.20;;;12.00;99.90;;;;;;4992525;28;20060;-77
2022/10/08 03:18:44;;;;;;;1.02;0.68;;;12.00;99.90;;;;;;5019505;28;20087;-76
2022/10/08 03:21:11;;;;;;;5.32;1.55;;;12.00;99.90;;;;;;5006661;28;20045;-78
2022/10/08 03:23:37;;;;;;;4.07;1.08;;;12.00;99.90;;;;;;4991926;28;20130;-77
2022/10/08 03:26:02;;;;;;;4.93;1.67;;;11.90;99.90;;;;;;5005586;28;20121;-77
2022/10/08 03:28:28;;;;;;;10.13;1.83;;;11.90;99.90;;;;;;5008812;28;20112;-77
2022/10/08 03:30:54;;;;;;;7.68;2.10;;;11.80;99.90;;;;;;5024724;28;20038;-77
2022/10/08 03:33:19;;;;;;;7.18;2.40;;;11.80;99.90;;;;;;5022779;28;20144;-78
2022/10/08 03:35:45;;;;;;;10.48;2.38;;;11.70;99.90;;;;;;5024622;28;20438;-78
2022/10/08 03:38:11;;;;;;;13.20;2.80;;;11.70;99.90;;;;;;5008459;28;20500;-79
2022/10/08 03:40:36;;;;;;;7.75;2.28;;;11.60;99.90;;;;;;5008266;28;20120;-77
2022/10/08 03:43:02;;;;;;;6.43;2.25;;;11.70;99.90;;;;;;5007763;28;20037;-77
2022/10/08 03:45:27;;;;;;;6.50;2.72;;;11.60;99.90;;;;;;5009967;28;20033;-78
2022/10/08 03:47:53;;;;;;;4.80;1.90;;;11.60;99.90;;;;;;5010008;28;20026;-78
2022/10/08 03:50:21;;;;;;;7.05;2.30;;;11.60;99.90;;;;;;5012011;28;20033;-76
2022/10/08 03:52:46;;;;;;;7.35;1.73;;;11.60;99.90;;;;;;5011931;28;20025;-78
2022/10/08 03:55:12;;;;;;;4.15;1.60;;;11.60;99.90;;;;;;5012032;28;20397;-78
2022/10/08 03:57:37;;;;;;;4.78;1.80;;;11.60;99.90;;;;;;4995273;28;20488;-80
2022/10/08 04:00:03;;;;;;;10.02;2.35;;;11.50;99.90;;;;;;5011910;28;20048;-79
2022/10/08 04:02:31;;;;;;;10.45;2.25;;;11.50;99.90;;;;;;5028377;28;20030;-76
2022/10/08 04:04:56;;;;;;;8.77;2.58;;;11.50;99.90;;;;;;5003069;28;20118;-78
2022/10/08 04:07:22;;;;;;;7.63;2.20;;;11.50;99.90;;;;;;5011656;28;20139;-78
2022/10/08 04:09:47;;;;;;;13.25;2.53;;;11.50;99.90;;;;;;5012309;28;20033;-79
2022/10/08 04:12:13;;;;;;;8.98;2.30;;;11.60;99.90;;;;;;5011207;28;20056;-78
2022/10/08 04:14:38;;;;;;;8.52;2.75;;;11.50;99.90;;;;;;4994539;28;20079;-77
2022/10/08 04:17:04;;;;;;;7.63;2.60;;;11.60;99.90;;;;;;5027964;28;20034;-77
2022/10/08 04:19:29;;;;;;;7.20;2.13;;;11.50;99.90;;;;;;5028465;28;20033;-77
2022/10/08 04:21:55;;;;;;;9.25;3.03;;;11.50;99.90;;;;;;4999532;28;20045;-77
2022/10/08 04:24:20;;;;;;;7.75;2.97;;;11.60;99.90;;;;;;4995066;28;20506;-78
2022/10/08 04:26:46;;;;;;;6.57;2.35;;;11.50;99.90;;;;;;5029633;28;20037;-76
2022/10/08 04:29:11;;;;;;;8.43;2.30;;;11.60;99.90;;;;;;5027863;28;20532;-77
2022/10/08 04:31:39;;;;;;;11.68;3.00;;;11.60;99.90;;;;;;4996241;28;20048;-77
2022/10/08 04:34:04;;;;;;;7.40;2.70;;;11.60;99.90;;;;;;4994446;28;20591;-78
2022/10/08 04:36:30;;;;;;;4.05;1.90;;;11.40;99.90;;;;;;5000373;28;20026;-77
2022/10/08 04:38:55;;;;;;;11.02;2.95;;;11.40;99.90;;;;;;5026758;28;20033;-76
2022/10/08 04:41:23;;;;;;;6.25;2.20;;;11.30;99.90;;;;;;5009491;28;20045;-77
2022/10/08 04:43:48;;;;;;;7.47;2.00;;;11.40;99.90;;;;;;5027088;28;20034;-77
2022/10/08 04:46:15;;;;;;;8.07;2.83;;;11.40;99.90;;;;;;4994602;28;20036;-76
2022/10/08 04:48:48;;;;;;;8.93;2.65;;;11.40;99.90;;;;;;5002187;28;20038;-77
2022/10/08 04:51:14;;;;;;;7.50;2.22;;;11.40;99.90;;;;;;4995081;28;20481;-76
2022/10/08 04:53:39;;;;;;;6.30;1.90;;;11.30;99.90;;;;;;5010201;28;20033;-77
2022/10/08 04:56:13;;;;;;;4.68;2.55;;;11.40;99.90;;;;;;4993344;28;20044;-76
2022/10/08 04:58:39;;;;;;;13.40;3.78;;;11.30;99.90;;;;;;5009507;28;20030;-76
2022/10/08 05:01:05;;;;;;;5.57;2.75;;;11.30;99.90;;;;;;5027347;28;20040;-76
2022/10/08 05:03:34;;;;;;;7.70;3.05;;;11.30;99.90;;;;;;4988894;28;20033;-76
2022/10/08 05:06:00;;;;;;;6.03;3.03;;;11.40;99.90;;;;;;4982632;28;20033;-77
2022/10/08 05:08:25;;;;;;;8.77;2.72;;;11.30;99.90;;;;;;5026345;28;20044;-77
2022/10/08 05:10:51;;;;;;;9.75;3.65;;;11.30;99.90;;;;;;5009353;28;20056;-76
2022/10/08 05:13:16;;;;;;;8.45;3.50;;;11.40;99.90;;;;;;5010409;28;20038;-77
2022/10/08 05:15:42;;;;;;;8.68;3.80;;;11.40;99.90;;;;;;4993648;28;20034;-77
2022/10/08 05:18:07;;;;;;;6.35;2.20;;;11.40;99.90;;;;;;5009773;28;20037;-82
2022/10/08 05:20:35;;;;;;;10.75;3.83;;;11.40;99.90;;;;;;5009600;28;20049;-80
2022/10/08 05:23:00;;;;;;;11.13;3.33;;;11.40;99.90;;;;;;4993215;28;20045;-82
2022/10/08 05:25:30;;;;;;;9.90;3.45;;;11.50;99.90;;;;;;5025876;28;20037;-83
2022/10/08 05:27:55;;;;;;;11.18;3.28;;;11.40;99.90;;;;;;5010063;28;20483;-82
2022/10/08 05:30:21;;;;;;;11.85;3.45;;;11.40;99.90;;;;;;5025435;28;20112;-82
2022/10/08 05:32:46;;;;;;;6.60;3.35;;;11.40;99.90;;;;;;5009190;28;20109;-82
2022/10/08 05:35:12;;;;;;;10.00;2.50;;;11.40;99.90;;;;;;5009505;28;20040;-82
2022/10/08 05:37:37;;;;;;;8.90;3.05;;;11.50;99.90;;;;;;5009422;28;20036;-82
2022/10/08 05:40:03;;;;;;;10.25;2.92;;;11.40;99.90;;;;;;5009994;28;20431;-82
2022/10/08 05:42:28;;;;;;;10.23;2.80;;;11.50;99.90;;;;;;5009016;28;20025;-82
2022/10/08 05:44:54;;;;;;;8.30;2.55;;;11.50;99.90;;;;;;4992790;28;20025;-79
2022/10/08 05:47:20;;;;;;;7.28;2.38;;;11.50;99.90;;;;;;5025536;28;20056;-79
2022/10/08 05:49:45;;;;;;;8.48;3.03;;;11.40;99.90;;;;;;4991479;28;20113;-80
2022/10/08 05:52:11;;;;;;;7.22;3.40;;;11.40;99.90;;;;;;5008362;28;20547;-80
2022/10/08 05:54:36;;;;;;;12.00;3.53;;;11.30;99.90;;;;;;4992609;28;20067;-79
2022/10/08 05:57:02;;;;;;;5.88;2.55;;;11.30;99.90;;;;;;4991901;28;20124;-80
2022/10/08 05:59:27;;;;;;;9.93;2.78;;;11.30;99.90;;;;;;5003059;28;20718;-79
2022/10/08 06:01:53;;;;;;;9.68;2.90;;;11.30;99.90;;;;;;5007577;28;20396;-79
2022/10/08 06:04:19;;;;;;;5.65;1.83;;;11.40;99.90;;;;;;5007913;28;20435;-79
2022/10/08 06:06:44;;;;;;;5.13;2.35;;;11.40;99.90;;;;;;4990992;28;20128;-79
2022/10/08 06:09:12;;;;;;;7.30;2.42;;;11.50;99.90;;;;;;4990887;28;20136;-81
2022/10/08 06:11:38;;;;;;;8.38;2.15;;;11.40;99.90;;;;;;5008524;28;20377;-80
2022/10/08 06:14:04;;;;;;;11.82;4.32;;;11.30;99.90;;;;;;5008575;28;20033;-80
2022/10/08 06:16:30;;;;;;;8.88;3.05;;;11.30;99.90;;;;;;5008531;28;20133;-83
2022/10/08 06:18:56;;;;;;;9.63;2.53;;;11.20;99.90;;;;;;5020472;28;20033;-81
2022/10/08 06:21:23;;;;;;;10.57;3.30;;;11.30;99.90;;;;;;5003970;28;20033;-81
2022/10/08 06:23:51;;;;;;;7.30;3.30;;;11.30;99.90;;;;;;5023417;28;20075;-81
2022/10/08 06:26:17;;;;;;;8.70;2.17;;;11.30;99.90;;;;;;4992044;28;20037;-81
2022/10/08 06:28:43;;;;;;;6.10;2.67;;;11.30;99.90;;;;;;5024538;28;20042;-79
2022/10/08 06:31:08;;;;;;;6.22;2.00;;;11.40;99.90;;;;;;4991691;28;20083;-83
2022/10/08 06:33:34;;;;;;;8.95;3.55;;;11.40;99.90;;;;;;4992233;28;20037;-82
2022/10/08 06:36:16;;;;;;;9.50;3.30;;;11.40;99.90;;;;;;5009498;28;20038;-82
2022/10/08 06:38:41;;;;;;;8.82;2.30;;;11.40;99.90;;;;;;5024050;28;20370;-83
2022/10/08 06:41:07;;;;;;;5.90;3.08;;;11.40;99.90;;;;;;5008480;28;20037;-83
2022/10/08 06:43:32;;;;;;;7.90;3.13;;;11.50;99.90;;;;;;5008328;28;20581;-82
2022/10/08 06:46:01;;;;;;;7.60;3.88;;;11.50;99.90;;;;;;5019276;28;20038;-82
2022/10/08 06:48:27;;;;;;;8.43;3.10;;;11.50;99.90;;;;;;5024300;28;20059;-83
2022/10/08 06:50:59;;;;;;;8.98;4.07;;;11.50;99.90;;;;;;5002402;28;20033;-82
2022/10/08 06:53:25;;;;;;;8.60;4.25;;;11.50;99.90;;;;;;5007375;28;20034;-82
2022/10/08 06:55:58;;;;;;;6.68;3.22;;;11.50;99.90;;;;;;5007935;28;20091;-82
2022/10/08 06:58:24;;;;;;;11.60;3.55;;;11.50;99.90;;;;;;5024837;28;20076;-82
2022/10/08 07:00:58;;;;;;;11.70;4.93;;;11.50;99.90;;;;;;5007421;28;20449;-82
2022/10/08 07:03:24;;;;;;;15.88;6.25;;;11.60;99.90;;;;;;4993372;28;20038;-81
2022/10/08 07:05:49;;;;;;;12.45;4.65;;;11.50;99.90;;;;;;5024148;28;20404;-83
2022/10/08 07:08:15;;;;;;;11.88;5.82;;;11.60;99.90;;;;;;5006109;28;20477;-82
2022/10/08 07:10:40;;;;;;;13.02;6.00;;;11.60;99.90;;;;;;5007327;28;20489;-81
2022/10/08 07:13:06;;;;;;;12.52;6.10;;;11.60;99.90;;;;;;4991895;28;20079;-81
2022/10/08 07:15:31;;;;;;;14.90;7.38;;;11.60;99.90;;;;;;5007939;28;20025;-82
2022/10/08 07:17:57;;;;;;;9.88;4.95;;;11.70;99.90;;;;;;5024258;28;20121;-82
2022/10/08 07:20:23;;;;;;;11.73;5.93;;;11.70;99.90;;;;;;5006261;28;20033;-81
2022/10/08 07:22:48;;;;;;;11.93;7.82;;;11.70;99.90;;;;;;5024033;28;20021;-82
2022/10/08 07:25:14;;;;;;;12.93;10.15;;;11.80;99.90;;;;;;5007736;28;20032;-82
2022/10/08 07:27:39;;;;;;;15.10;7.75;;;11.80;99.90;;;;;;5007828;28;20027;-81
2022/10/08 07:30:05;;;;;;;12.38;7.93;;;11.90;99.90;;;;;;5007224;28;20041;-79
2022/10/08 07:32:31;;;;;;;17.95;12.32;;;12.00;99.90;;;;;;5006419;28;20485;-79
2022/10/08 07:34:56;;;;;;;14.00;10.13;;;12.00;99.90;;;;;;5006828;28;20112;-79
2022/10/08 07:37:22;;;;;;;10.63;8.18;;;12.00;99.90;;;;;;5007266;28;20025;-80
2022/10/08 07:39:47;;;;;;;18.63;9.60;;;12.10;99.90;;;;;;5007623;28;20053;-79
2022/10/08 07:42:13;;;;;;;20.15;12.93;;;12.10;99.90;;;;;;5007555;28;20076;-79
2022/10/08 07:44:38;;;;;;;10.25;6.82;;;12.20;99.90;;;;;;5024522;28;20481;-79
2022/10/08 07:47:04;;;;;;;20.60;10.43;;;12.20;99.90;;;;;;5023828;28;20804;-80
2022/10/08 07:49:30;;;;;;;11.23;4.88;;;12.20;99.90;;;;;;5024348;28;20029;-83
2022/10/08 07:51:55;;;;;;;14.68;7.78;;;12.40;99.90;;;;;;5007529;28;20065;-82
2022/10/08 07:54:21;;;;;;;15.23;9.98;;;12.30;99.90;;;;;;5007862;28;20029;-82
2022/10/08 07:56:47;;;;;;;18.50;11.63;;;12.40;99.90;;;;;;5023441;28;20029;-82
2022/10/08 07:59:14;;;;;;;14.68;8.25;;;12.40;99.90;;;;;;5023674;28;20384;-82
2022/10/08 08:01:40;;;;;;;16.38;9.82;;;12.50;99.90;;;;;;5022362;28;20055;-83
2022/10/08 08:04:07;;;;;;;15.75;12.63;;;12.60;99.90;;;;;;5007303;28;20033;-82
2022/10/08 08:06:33;;;;;;;14.85;8.77;;;12.70;99.90;;;;;;5023046;28;20025;-82
2022/10/08 08:08:59;;;;;;;18.10;9.68;;;12.80;99.90;;;;;;4990238;28;20103;-79
2022/10/08 08:11:24;;;;;;;23.73;11.60;;;12.90;99.90;;;;;;5006289;28;20034;-82
2022/10/08 08:13:51;;;;;;;14.70;8.90;;;12.90;99.90;;;;;;4989962;28;20044;-82
2022/10/08 08:16:18;;;;;;;26.50;15.60;;;13.00;99.90;;;;;;5007263;28;20538;-82
2022/10/08 08:18:48;;;;;;;19.15;11.05;;;13.20;99.90;;;;;;5023442;28;20025;-82
2022/10/08 08:21:18;;;;;;;16.70;10.15;;;13.20;99.90;;;;;;5004897;28;20065;-83
2022/10/08 08:23:48;;;;;;;22.08;13.13;;;13.20;99.90;;;;;;5006730;28;20037;-82
2022/10/08 08:26:15;;;;;;;25.60;13.82;;;13.20;99.90;;;;;;5023872;28;20039;-82
2022/10/08 08:28:41;;;;;;;23.85;13.10;;;13.20;99.90;;;;;;5022300;28;20063;-82
2022/10/08 08:31:11;;;;;;;15.65;7.47;;;13.20;99.90;;;;;;5009006;28;20063;-82
2022/10/08 08:33:37;;;;;;;17.25;10.18;;;13.20;99.90;;;;;;4995456;28;20033;-82
2022/10/08 08:36:03;;;;;;;14.98;10.52;;;13.20;99.90;;;;;;5026967;28;20025;-82
2022/10/08 08:38:29;;;;;;;14.82;9.05;;;13.30;99.90;;;;;;5013759;28;20026;-82
2022/10/08 08:40:56;;;;;;;21.42;9.48;;;13.40;99.90;;;;;;4993669;28;20040;-82
2022/10/08 08:43:22;;;;;;;16.92;9.27;;;13.40;99.90;;;;;;5026534;28;20034;-81
2022/10/08 08:45:47;;;;;;;18.30;9.52;;;13.50;99.90;;;;;;5026835;28;20136;-83
2022/10/08 08:48:17;;;;;;;15.13;9.30;;;13.50;99.90;;;;;;5010603;28;20604;-80
2022/10/08 08:50:43;;;;;;;17.00;9.85;;;13.60;99.90;;;;;;4994197;28;20029;-80
2022/10/08 08:53:09;;;;;;;14.23;7.10;;;13.70;99.90;;;;;;4994059;28;20432;-80
2022/10/08 08:55:43;;;;;;;15.05;9.30;;;13.80;99.90;;;;;;5010049;28;20481;-80
2022/10/08 08:58:39;;;;;;;17.40;10.07;;;13.90;99.90;;;;;;5026203;28;20072;-80
2022/10/08 09:01:08;;;;;;;15.38;9.23;;;14.10;99.90;;;;;;5007482;28;20088;-81
2022/10/08 09:03:39;;;;;;;12.85;6.68;;;14.10;99.90;;;;;;5027607;28;20033;-80
2022/10/08 09:06:08;;;;;;;15.98;7.45;;;14.10;99.90;;;;;;4987613;28;20036;-81
2022/10/08 09:08:36;;;;;;;18.52;10.68;;;14.10;99.90;;;;;;5009064;28;20113;-82
2022/10/08 09:11:03;;;;;;;16.67;8.90;;;14.20;99.90;;;;;;5009742;28;20033;-82
2022/10/08 09:13:36;;;;;;;12.23;6.28;;;14.20;99.90;;;;;;5009586;28;20029;-82
2022/10/08 09:16:02;;;;;;;15.48;8.05;;;14.30;99.90;;;;;;4993253;28;20477;-81
2022/10/08 09:18:27;;;;;;;18.77;9.35;;;14.40;99.90;;;;;;4993402;28;20033;-81
2022/10/08 09:20:53;;;;;;;19.17;8.35;;;14.50;99.90;;;;;;5009870;28;20049;-82
2022/10/08 09:23:20;;;;;;;17.73;8.20;;;14.60;99.90;;;;;;4993660;28;20033;-81
2022/10/08 09:25:56;;;;;;;11.80;6.20;;;14.90;99.90;;;;;;4994231;28;20666;-82
2022/10/08 09:28:39;;;;;;;;;;;14.90;99.90;;;;;;5026885;28;20489;-80
2022/10/08 09:31:39;;;;;;;15.40;8.68;;;15.10;99.90;;;;;;5024906;28;20303;-83
2022/10/08 09:34:15;;;;;;;13.07;6.70;;;15.20;99.90;;;;;;4993604;28;20033;-83
2022/10/08 09:36:46;;;;;;;21.67;8.80;;;15.10;99.90;;;;;;5025504;28;20038;-85
2022/10/08 09:39:20;;;;;;;14.82;6.93;;;15.30;99.90;;;;;;5025171;28;20040;-84
2022/10/08 09:41:47;;;;;;;10.02;5.95;;;15.50;99.90;;;;;;4992337;28;20038;-84
2022/10/08 09:44:18;;;;;;;11.23;6.53;;;15.60;99.90;;;;;;5024823;28;20519;-84
2022/10/08 09:46:44;;;;;;;13.15;5.80;;;15.60;99.90;;;;;;4993211;28;20481;-84
2022/10/08 09:49:31;;;;;;;11.13;5.97;;;15.60;99.90;;;;;;5009410;28;20026;-85
2022/10/08 09:52:02;;;;;;;8.18;4.75;;;15.60;99.90;;;;;;5024724;28;20041;-84
2022/10/08 09:54:31;;;;;;;11.57;5.45;;;15.40;99.90;;;;;;4991773;28;20054;-84
2022/10/08 09:56:57;;;;;;;11.45;5.50;;;15.40;99.90;;;;;;4993647;28;20499;-84
2022/10/08 09:59:27;;;;;;;15.93;5.15;;;15.40;99.90;;;;;;5008819;28;20076;-84
2022/10/08 10:01:53;;;;;;;10.52;3.72;;;15.70;99.90;;;;;;5008101;28;20614;-84
2022/10/08 10:04:39;;;;;;;9.88;5.13;;;15.70;99.90;;;;;;5009103;28;20124;-84
2022/10/08 10:07:04;;;;;;;11.88;4.82;;;15.70;99.90;;;;;;5024504;28;20390;-84
2022/10/08 10:09:37;;;;;;;12.70;4.50;;;15.90;99.90;;;;;;5008708;28;20081;-83
2022/10/08 10:12:23;;;;;;;10.15;4.93;;;15.90;99.90;;;;;;5008408;28;20095;-83
2022/10/08 10:14:49;;;;;;;;;;;16.00;99.90;;;;;;5009372;28;20030;-83
2022/10/08 10:17:29;;;;;;;11.65;4.40;;;16.10;99.90;;;;;;5008911;28;19948;-83
2022/10/08 10:19:58;;;;;;;11.27;4.30;;;16.00;99.90;;;;;;5010190;28;20029;-83
2022/10/08 10:22:31;;;;;;;15.57;4.82;;;16.10;99.90;;;;;;5022559;28;20570;-83
2022/10/08 10:25:05;;;;;;;8.38;4.00;;;16.10;99.90;;;;;;5009027;28;20124;-83
2022/10/08 10:27:37;;;;;;;16.08;5.70;;;16.00;99.90;;;;;;4992488;28;20104;-84
2022/10/08 10:30:20;;;;;;;9.65;4.78;;;16.10;99.90;;;;;;4993048;28;20404;-83
2022/10/08 10:33:01;;;;;;;9.70;3.70;;;16.10;99.90;;;;;;5008601;28;20148;-84
2022/10/08 10:35:28;;;;;;;4.78;2.80;;;16.30;99.90;;;;;;5005182;28;20548;-85
2022/10/08 10:38:12;;;;;;;6.28;2.63;;;16.30;99.90;;;;;;5008699;28;20519;-84
2022/10/08 10:40:44;;;;;;;3.60;2.33;;;16.50;99.90;;;;;;5024763;28;20447;-84
2022/10/08 10:43:27;;;;;;;9.00;2.42;;;16.60;99.90;;;;;;5026370;28;20034;-85
2022/10/08 10:46:14;;;;;;;9.90;2.30;;;16.70;99.90;;;;;;5003518;28;20104;-82
2022/10/08 10:48:41;;;;;;;4.78;1.90;;;16.80;99.90;;;;;;5023505;28;20029;-86
2022/10/08 10:51:25;;;;;;;8.85;2.60;;;16.70;99.90;;;;;;5024694;28;20056;-85
2022/10/08 10:54:04;;;;;;;8.15;2.22;;;16.80;99.90;;;;;;5023272;28;20041;-85
2022/10/08 10:56:37;;;;;;;7.13;2.17;;;16.70;99.90;;;;;;4985505;28;20420;-83
2022/10/08 10:59:27;;;;;;;7.20;3.08;;;16.80;99.90;;;;;;5009431;28;20440;-86
2022/10/08 11:02:02;;;;;;;6.63;2.80;;;16.70;99.90;;;;;;5023415;28;20040;-86
2022/10/08 11:04:58;;;;;;;7.80;2.67;;;16.80;99.90;;;;;;5012374;28;20038;-86
2022/10/08 11:07:49;;;;;;;9.07;2.28;;;17.00;99.90;;;;;;5013602;28;20515;-86
2022/10/08 11:10:35;;;;;;;5.50;2.35;;;17.20;99.90;;;;;;5008059;28;20044;-83
2022/10/08 11:13:31;;;;;;;7.45;2.15;;;17.40;99.90;;;;;;5025491;28;20389;-86
2022/10/08 11:16:15;;;;;;;3.30;1.45;;;17.70;99.90;;;;;;5024477;28;20037;-86
2022/10/08 11:18:54;;;;;;;5.68;1.80;;;18.00;99.90;;;;;;5011887;28;20022;-85
2022/10/08 11:21:35;;;;;;;6.43;2.42;;;18.10;99.90;;;;;;5006934;28;20365;-85
2022/10/08 11:24:38;;;;;;;7.50;2.33;;;18.20;99.90;;;;;;5024985;28;20044;-85
2022/10/08 11:27:21;;;;;;;4.45;2.42;;;18.30;99.90;;;;;;4983661;28;20164;-85
2022/10/08 11:29:53;;;;;;;6.80;1.90;;;18.40;99.90;;;;;;5024149;28;20034;-84
2022/10/08 11:32:18;;;;;;;6.60;1.90;;;18.50;99.90;;;;;;5026054;28;20064;-82
2022/10/08 11:35:00;;;;;;;4.20;1.60;;;18.70;99.90;;;;;;4990824;28;20497;-81
2022/10/08 11:37:58;;;;;;;8.50;1.60;;;18.70;99.90;;;;;;5007587;28;20072;-85
2022/10/08 11:40:39;;;;;;;5.82;1.55;;;18.50;99.90;;;;;;5009907;28;20042;-83
2022/10/08 11:43:12;;;;;;;6.03;1.45;;;18.30;99.90;;;;;;5006259;28;20132;-83
2022/10/08 11:45:41;;;;;;;5.70;1.33;;;18.30;99.90;;;;;;5007500;28;20393;-86
2022/10/08 11:48:32;;;;;;;11.70;1.60;;;18.30;99.90;;;;;;5040083;28;20595;-85
2022/10/08 11:51:19;;;;;;;8.30;1.30;;;18.30;99.90;;;;;;5006642;28;20462;-85
2022/10/08 11:54:11;;;;;;;9.68;1.50;;;18.60;99.90;;;;;;5020094;28;20034;-84
2022/10/08 11:56:38;;;;;;;4.60;1.98;;;18.20;99.90;;;;;;5001831;28;20026;-85
2022/10/08 11:59:41;;;;;;;8.65;1.70;;;18.30;99.90;;;;;;4997911;28;22809;-84
2022/10/08 12:02:35;;;;;;;1.25;0.90;;;18.40;99.90;;;;;;5023644;28;20095;-85
2022/10/08 12:05:22;;;;;;;3.60;1.77;;;18.50;99.90;;;;;;5017032;28;20032;-84
2022/10/08 12:07:58;;;;;;;5.82;1.20;;;18.40;99.90;;;;;;5027555;28;20037;-84
2022/10/08 12:10:30;;;;;;;4.43;1.35;;;18.30;99.90;;;;;;5011370;28;20053;-85
2022/10/08 12:13:00;;;;;;;4.95;1.00;;;18.60;99.90;;;;;;5028419;28;20070;-83
2022/10/08 12:15:26;;;;;;;6.32;1.02;;;18.30;99.90;;;;;;5013017;28;20029;-83
2022/10/08 12:17:56;;;;;;;2.90;0.85;;;18.50;99.90;;;;;;5029791;28;20025;-82
2022/10/08 12:20:23;;;;;;;2.70;0.93;;;18.50;99.90;;;;;;5011949;28;20382;-86
2022/10/08 12:23:19;;;;;;;6.10;1.33;;;18.40;99.90;;;;;;5011376;28;20174;-85
2022/10/08 12:25:45;;;;;;;2.00;1.00;;;18.40;99.90;;;;;;5028426;28;20025;-85
2022/10/08 12:28:19;;;;;;;4.15;1.00;;;18.40;99.90;;;;;;5027511;28;20432;-85
2022/10/08 12:30:45;;;;;;;2.78;1.00;;;18.60;98.90;;;;;;5027746;28;20032;-83
2022/10/08 12:33:11;;;;;;;2.95;0.80;;;18.60;99.80;;;;;;5027458;28;20511;-85
2022/10/08 12:35:41;;;;;;;3.28;0.95;;;18.70;99.60;;;;;;5012522;28;20034;-86
2022/10/08 12:38:09;;;;;;;6.03;0.95;;;18.80;99.70;;;;;;5013209;28;20033;-86
2022/10/08 12:40:50;;;;;;;8.45;1.33;;;19.40;98.40;;;;;;5029453;28;20489;-84
2022/10/08 12:43:39;;;;;;;6.68;2.15;;;19.10;97.80;;;;;;5026875;28;20480;-86
2022/10/08 12:46:37;;;;;;;2.38;0.80;;;19.60;97.20;;;;;;5026668;28;20026;-86
2022/10/08 12:49:14;;;;;;;4.75;1.00;;;19.40;95.90;;;;;;5004054;28;20608;-85
2022/10/08 12:51:49;;;;;;;3.28;0.93;;;19.70;97.10;;;;;;5026338;28;20499;-85
2022/10/08 12:54:22;;;;;;;7.78;1.05;;;20.00;95.50;;;;;;5022826;28;20034;-86
2022/10/08 12:56:49;;;;;;;3.10;1.02;;;19.80;96.90;;;;;;5024784;28;20025;-86
2022/10/08 12:59:14;;;;;;;5.38;1.13;;;19.80;97.20;;;;;;5009063;28;20116;-85
2022/10/08 13:01:41;;;;;;;2.90;0.90;;;19.90;94.50;;;;;;4996918;28;20194;-85